createdAt,value
2023-01-07T00:01:45.717Z,20.17
2023-01-07T00:04:16.941Z,19.97
2023-01-07T00:06:44.324Z,19.93
2023-01-07T00:09:16.801Z,20.73
2023-01-07T00:11:46.183Z,21.00
2023-01-07T00:14:13.695Z,20.10
2023-01-07T00:16:40.631Z,19.80
2023-01-07T00:19:08.168Z,20.83
2023-01-07T00:21:37.383Z,20.43
2023-01-07T00:24:05.397Z,20.67
2023-01-07T00:26:34.256Z,20.57
2023-01-07T00:29:08.436Z,20.87
2023-01-07T00:31:37.859Z,21.20
2023-01-07T00:34:04.769Z,21.43
2023-01-07T00:36:38.242Z,20.17
2023-01-07T00:39:07.277Z,22.33
2023-01-07T00:41:34.124Z,22.10
2023-01-07T00:44:00.962Z,22.23
2023-01-07T00:46:27.964Z,24.03
2023-01-07T00:48:59.329Z,24.10
2023-01-07T00:51:28.439Z,23.23
2023-01-07T00:53:57.459Z,25.13
2023-01-07T00:56:24.264Z,25.83
2023-01-07T00:58:51.071Z,24.83
2023-01-07T01:01:18.004Z,25.57
2023-01-07T01:03:44.812Z,27.73
2023-01-07T01:06:14.843Z,27.67
2023-01-07T01:08:44.648Z,27.50
2023-01-07T01:11:12.116Z,27.23
2023-01-07T01:13:38.991Z,28.80
2023-01-07T01:16:10.634Z,29.53
2023-01-07T01:18:40.173Z,29.20
2023-01-07T01:21:08.610Z,29.50
2023-01-07T01:23:38.688Z,29.70
2023-01-07T01:26:09.818Z,31.07
2023-01-07T01:28:36.639Z,30.90
2023-01-07T01:31:03.547Z,31.83
2023-01-07T01:33:30.489Z,30.23
2023-01-07T01:35:57.347Z,31.27
2023-01-07T01:38:24.211Z,32.30
2023-01-07T01:40:50.994Z,31.07
2023-01-07T01:43:26.700Z,33.80
2023-01-07T01:45:53.714Z,33.77
2023-01-07T01:48:23.004Z,34.00
2023-01-07T01:50:49.788Z,34.03
2023-01-07T01:53:24.037Z,32.97
2023-01-07T01:55:57.408Z,33.37
2023-01-07T01:58:34.386Z,34.90
2023-01-07T02:01:01.267Z,32.77
2023-01-07T02:03:31.194Z,34.00
2023-01-07T02:06:00.515Z,33.70
2023-01-07T02:08:29.586Z,32.47
2023-01-07T02:11:46.706Z,31.87
2023-01-07T02:14:45.297Z,31.57
2023-01-07T02:17:24.988Z,32.83
2023-01-07T02:20:13.289Z,33.10
2023-01-07T02:22:40.054Z,33.10
2023-01-07T02:25:28.602Z,33.57
2023-01-07T02:28:04.439Z,33.40
2023-01-07T02:30:42.915Z,32.67
2023-01-07T02:33:21.963Z,33.43
2023-01-07T02:36:07.448Z,34.27
2023-01-07T02:39:06.261Z,33.63
2023-01-07T02:41:35.872Z,32.43
2023-01-07T02:44:06.804Z,32.03
2023-01-07T02:47:19.453Z,33.10
2023-01-07T02:49:49.499Z,31.67
2023-01-07T02:52:24.933Z,33.17
2023-01-07T02:54:54.904Z,33.57
2023-01-07T02:57:35.527Z,32.73
2023-01-07T03:00:40.080Z,33.27
2023-01-07T03:03:34.886Z,31.30
2023-01-07T03:06:23.400Z,31.70
2023-01-07T03:08:55.971Z,32.20
2023-01-07T03:11:22.790Z,31.73
2023-01-07T03:14:03.266Z,31.40
2023-01-07T03:16:50.580Z,30.87
2023-01-07T03:19:18.658Z,31.30
2023-01-07T03:21:51.067Z,31.67
2023-01-07T03:24:20.406Z,33.27
2023-01-07T03:26:48.810Z,30.90
2023-01-07T03:29:16.117Z,30.67
2023-01-07T03:31:53.357Z,33.03
2023-01-07T03:34:21.221Z,32.93
2023-01-07T03:36:53.574Z,31.37
2023-01-07T03:39:24.042Z,30.60
2023-01-07T03:42:09.513Z,32.80
2023-01-07T03:44:38.939Z,33.13
2023-01-07T03:47:06.066Z,32.63
2023-01-07T03:49:32.997Z,32.67
2023-01-07T03:51:59.839Z,32.33
2023-01-07T03:54:28.896Z,31.93
2023-01-07T03:56:57.828Z,33.37
2023-01-07T03:59:26.853Z,31.50
2023-01-07T04:01:53.735Z,32.07
2023-01-07T04:04:20.869Z,32.00
2023-01-07T04:06:49.786Z,32.20
2023-01-07T04:09:19.191Z,34.00
2023-01-07T04:11:46.017Z,32.53
2023-01-07T04:14:12.879Z,34.77
2023-01-07T04:16:39.846Z,35.53
2023-01-07T04:19:06.623Z,34.13
2023-01-07T04:21:36.136Z,33.63
2023-01-07T04:24:02.963Z,33.60
2023-01-07T04:26:29.732Z,32.43
2023-01-07T04:28:58.713Z,32.87
2023-01-07T04:31:27.750Z,33.20
2023-01-07T04:33:54.612Z,32.10
2023-01-07T04:36:21.408Z,32.70
2023-01-07T04:38:50.482Z,30.77
2023-01-07T04:41:21.860Z,31.03
2023-01-07T04:43:48.648Z,30.30
2023-01-07T04:46:15.527Z,31.07
2023-01-07T04:48:42.313Z,30.47
2023-01-07T04:51:09.112Z,28.70
2023-01-07T04:53:36.017Z,29.70
2023-01-07T04:56:02.824Z,28.07
2023-01-07T04:58:29.649Z,26.47
2023-01-07T05:00:58.638Z,29.10
2023-01-07T05:03:25.853Z,26.93
2023-01-07T05:05:52.648Z,27.63
2023-01-07T05:08:24.081Z,26.87
2023-01-07T05:10:50.936Z,26.33
2023-01-07T05:13:21.008Z,25.87
2023-01-07T05:15:47.851Z,26.23
2023-01-07T05:18:14.874Z,26.90
2023-01-07T05:20:41.642Z,26.40
2023-01-07T05:23:10.606Z,26.63
2023-01-07T05:25:39.552Z,27.57
2023-01-07T05:28:09.777Z,26.07
2023-01-07T05:30:36.572Z,26.80
2023-01-07T05:33:07.170Z,26.20
2023-01-07T05:35:34.922Z,25.23
2023-01-07T05:38:03.860Z,25.87
2023-01-07T05:40:30.606Z,26.13
2023-01-07T05:42:59.634Z,24.97
2023-01-07T05:45:26.390Z,25.47
2023-01-07T05:47:55.541Z,25.90
2023-01-07T05:50:24.597Z,24.33
2023-01-07T05:52:51.907Z,23.67
2023-01-07T05:55:18.829Z,23.63
2023-01-07T05:57:45.621Z,24.00
2023-01-07T06:00:12.974Z,24.07
2023-01-07T06:02:39.763Z,22.90
2023-01-07T06:05:09.582Z,23.60
2023-01-07T06:07:36.546Z,23.47
2023-01-07T06:10:03.669Z,21.60
2023-01-07T06:12:34.066Z,20.97
2023-01-07T06:15:00.915Z,21.43
2023-01-07T06:17:27.772Z,21.40
2023-01-07T06:19:54.663Z,22.03
2023-01-07T06:22:23.713Z,20.30
2023-01-07T06:24:50.497Z,21.37
2023-01-07T06:27:17.321Z,21.07
2023-01-07T06:29:44.072Z,21.60
2023-01-07T06:32:10.911Z,20.80
2023-01-07T06:34:37.802Z,21.20
2023-01-07T06:37:04.579Z,18.37
2023-01-07T06:39:33.526Z,19.37
2023-01-07T06:42:00.396Z,18.90
2023-01-07T06:44:27.211Z,18.87
2023-01-07T06:46:56.716Z,19.13
2023-01-07T06:49:25.595Z,18.93
2023-01-07T06:51:52.417Z,18.83
2023-01-07T06:54:19.213Z,19.67
2023-01-07T06:56:48.447Z,18.90
2023-01-07T06:59:15.285Z,19.73
2023-01-07T07:01:42.371Z,18.37
2023-01-07T07:04:09.991Z,18.17
2023-01-07T07:06:36.838Z,18.17
2023-01-07T07:09:06.117Z,17.80
2023-01-07T07:11:32.963Z,17.30
2023-01-07T07:14:00.004Z,17.47
2023-01-07T07:16:31.203Z,18.57
2023-01-07T07:18:58.694Z,18.83
2023-01-07T07:21:25.488Z,18.20
2023-01-07T07:23:52.252Z,18.30
2023-01-07T07:26:21.108Z,18.27
2023-01-07T07:28:47.891Z,17.63
2023-01-07T07:31:14.706Z,17.70
2023-01-07T07:33:43.998Z,17.60
2023-01-07T07:36:10.747Z,18.20
2023-01-07T07:38:37.582Z,18.20
2023-01-07T07:41:06.902Z,18.37
2023-01-07T07:43:37.438Z,18.47
2023-01-07T07:46:04.630Z,18.63
2023-01-07T07:48:34.020Z,17.40
2023-01-07T07:51:03.276Z,18.90
2023-01-07T07:53:32.194Z,19.37
2023-01-07T07:56:01.093Z,18.80
2023-01-07T07:58:27.932Z,20.50
2023-01-07T08:00:54.726Z,20.43
2023-01-07T08:03:21.748Z,19.67
2023-01-07T08:05:48.703Z,19.90
2023-01-07T08:08:20.323Z,20.53
2023-01-07T08:10:49.590Z,20.83
2023-01-07T08:13:19.448Z,21.63
2023-01-07T08:15:47.015Z,21.03
2023-01-07T08:18:13.844Z,20.87
2023-01-07T08:20:42.861Z,21.63
2023-01-07T08:23:14.040Z,20.73
2023-01-07T08:25:40.959Z,21.80
2023-01-07T08:28:07.774Z,20.13
2023-01-07T08:30:34.566Z,21.63
2023-01-07T08:33:03.107Z,21.27
2023-01-07T08:35:29.891Z,20.03
2023-01-07T08:38:07.509Z,20.33
2023-01-07T08:40:37.110Z,21.23
2023-01-07T08:43:05.228Z,20.10
2023-01-07T08:45:34.371Z,21.80
2023-01-07T08:48:01.192Z,21.33
2023-01-07T08:50:29.028Z,21.30
2023-01-07T08:52:55.816Z,22.93
2023-01-07T08:55:22.865Z,20.47
2023-01-07T08:57:49.800Z,20.33
2023-01-07T09:00:17.279Z,22.07
2023-01-07T09:02:46.443Z,21.10
2023-01-07T09:05:15.497Z,22.00
2023-01-07T09:07:42.376Z,20.97
2023-01-07T09:10:10.195Z,21.67
2023-01-07T09:12:37.385Z,22.67
2023-01-07T09:15:06.802Z,22.70
2023-01-07T09:17:33.647Z,22.97
2023-01-07T09:20:03.622Z,25.97
2023-01-07T09:22:33.141Z,25.70
2023-01-07T09:24:59.897Z,26.40
2023-01-07T09:27:28.868Z,26.20
2023-01-07T09:29:58.424Z,26.23
2023-01-07T09:32:26.117Z,26.37
2023-01-07T09:34:52.949Z,27.60
2023-01-07T09:37:22.017Z,26.10
2023-01-07T09:39:48.885Z,25.03
2023-01-07T09:42:34.028Z,26.33
2023-01-07T09:45:35.730Z,25.23
2023-01-07T09:48:07.199Z,25.67
2023-01-07T09:51:03.119Z,24.87
2023-01-07T09:53:43.396Z,24.90
2023-01-07T09:56:22.427Z,25.83
2023-01-07T09:58:49.293Z,24.43
2023-01-07T10:01:40.757Z,25.23
2023-01-07T10:04:39.490Z,24.73
2023-01-07T10:07:27.775Z,23.17
2023-01-07T10:09:57.320Z,24.50
2023-01-07T10:12:48.984Z,23.60
2023-01-07T10:15:37.363Z,24.00
2023-01-07T10:18:19.339Z,25.23
2023-01-07T10:20:54.832Z,25.30
2023-01-07T10:23:28.922Z,25.97
2023-01-07T10:25:56.627Z,24.97
2023-01-07T10:28:41.947Z,25.37
2023-01-07T10:31:15.488Z,24.80
2023-01-07T10:33:42.973Z,23.60
2023-01-07T10:36:17.935Z,24.20
2023-01-07T10:38:47.751Z,24.40
2023-01-07T10:41:18.591Z,24.30
2023-01-07T10:43:57.063Z,23.87
2023-01-07T10:46:30.881Z,23.37
2023-01-07T10:49:06.593Z,24.20
2023-01-07T10:52:01.472Z,24.37
2023-01-07T10:54:37.164Z,23.90
2023-01-07T10:57:12.037Z,24.30
2023-01-07T10:59:41.055Z,24.00
2023-01-07T11:02:14.371Z,23.30
2023-01-07T11:04:43.469Z,22.13
2023-01-07T11:07:44.863Z,22.53
2023-01-07T11:10:17.182Z,21.63
2023-01-07T11:12:53.841Z,22.63
2023-01-07T11:15:38.121Z,21.60
2023-01-07T11:18:18.667Z,21.50
2023-01-07T11:20:53.423Z,22.07
2023-01-07T11:23:28.423Z,22.13
2023-01-07T11:26:04.566Z,22.17
2023-01-07T11:28:33.908Z,21.67
2023-01-07T11:31:07.872Z,21.30
2023-01-07T11:34:01.475Z,20.60
2023-01-07T11:36:41.332Z,20.80
2023-01-07T11:39:12.538Z,20.23
2023-01-07T11:41:39.293Z,20.80
2023-01-07T11:44:10.305Z,21.17
2023-01-07T11:46:37.282Z,20.20
2023-01-07T11:49:04.133Z,19.60
2023-01-07T11:51:39.121Z,19.43
2023-01-07T11:54:05.898Z,19.40
2023-01-07T11:56:33.642Z,18.27
2023-01-07T11:59:15.934Z,18.60
2023-01-07T12:01:52.003Z,19.00
2023-01-07T12:04:35.918Z,19.20
2023-01-07T12:07:03.233Z,18.93
2023-01-07T12:09:34.318Z,19.20
2023-01-07T12:12:07.794Z,18.27
2023-01-07T12:14:36.319Z,18.40
2023-01-07T12:17:18.640Z,18.10
2023-01-07T12:20:00.519Z,17.43
2023-01-07T12:22:39.633Z,18.23
2023-01-07T12:25:13.249Z,17.70
2023-01-07T12:27:58.841Z,17.90
2023-01-07T12:30:31.103Z,18.13
2023-01-07T12:33:12.827Z,19.27
2023-01-07T12:35:42.613Z,19.03
2023-01-07T12:38:14.648Z,17.93
2023-01-07T12:40:53.368Z,19.00
2023-01-07T12:43:29.031Z,17.40
2023-01-07T12:46:13.672Z,17.03
2023-01-07T12:48:58.963Z,16.00
2023-01-07T12:51:30.928Z,17.60
2023-01-07T12:54:18.854Z,15.33
2023-01-07T12:56:55.127Z,15.10
2023-01-07T12:59:47.199Z,15.13
2023-01-07T13:02:25.448Z,15.87
2023-01-07T13:05:10.002Z,16.13
2023-01-07T13:07:52.823Z,14.53
2023-01-07T13:10:31.649Z,15.17
2023-01-07T13:13:03.268Z,16.63
2023-01-07T13:15:32.997Z,17.67
2023-01-07T13:18:12.069Z,17.20
2023-01-07T13:21:08.029Z,17.13
2023-01-07T13:24:12.244Z,16.77
2023-01-07T13:26:56.975Z,16.87
2023-01-07T13:29:49.516Z,17.37
2023-01-07T13:32:19.319Z,17.87
2023-01-07T13:34:57.780Z,17.00
2023-01-07T13:37:46.108Z,16.53
2023-01-07T13:40:44.111Z,18.40
2023-01-07T13:43:44.790Z,19.27
2023-01-07T13:46:40.602Z,19.50
2023-01-07T13:49:21.280Z,18.53
2023-01-07T13:51:48.053Z,19.50
2023-01-07T13:54:14.828Z,19.47
2023-01-07T13:56:41.680Z,20.20
2023-01-07T13:59:28.006Z,18.87
2023-01-07T14:02:15.294Z,21.77
2023-01-07T14:04:50.176Z,22.50
2023-01-07T14:07:20.496Z,24.50
2023-01-07T14:09:47.365Z,23.83
2023-01-07T14:12:25.389Z,24.37
2023-01-07T14:15:08.140Z,23.97
2023-01-07T14:17:52.712Z,22.93
2023-01-07T14:20:42.602Z,23.13
2023-01-07T14:23:12.435Z,22.77
2023-01-07T14:25:58.061Z,24.00
2023-01-07T14:28:43.683Z,22.93
2023-01-07T14:31:24.104Z,21.87
2023-01-07T14:33:58.081Z,22.57
2023-01-07T14:36:25.414Z,23.33
2023-01-07T14:38:58.899Z,22.80
2023-01-07T14:41:28.405Z,23.23
2023-01-07T14:44:03.576Z,23.17
2023-01-07T14:46:36.606Z,23.77
2023-01-07T14:49:37.460Z,21.70
2023-01-07T14:52:23.814Z,22.00
2023-01-07T14:55:02.069Z,23.30
2023-01-07T14:58:04.100Z,24.00
2023-01-07T15:00:55.470Z,23.40
2023-01-07T15:03:40.638Z,22.10
2023-01-07T15:06:24.393Z,22.57
2023-01-07T15:09:27.152Z,23.30
2023-01-07T15:12:15.149Z,22.10
2023-01-07T15:15:21.464Z,21.57
2023-01-07T15:17:48.262Z,22.17
2023-01-07T15:20:15.135Z,20.83
2023-01-07T15:23:00.459Z,21.33
2023-01-07T15:25:42.155Z,20.53
2023-01-07T15:28:29.465Z,20.27
2023-01-07T15:31:00.879Z,19.47
2023-01-07T15:33:42.930Z,20.83
2023-01-07T15:36:13.220Z,19.97
2023-01-07T15:38:50.230Z,20.17
2023-01-07T15:41:33.129Z,18.33
2023-01-07T15:44:01.262Z,18.77
2023-01-07T15:46:28.150Z,18.00
2023-01-07T15:49:27.932Z,17.43
2023-01-07T15:51:56.991Z,17.93
2023-01-07T15:54:26.638Z,18.63
2023-01-07T15:56:56.300Z,18.30
2023-01-07T15:59:33.977Z,18.00
2023-01-07T16:02:15.058Z,17.17
2023-01-07T16:04:43.814Z,17.93
2023-01-07T16:07:20.921Z,17.93
2023-01-07T16:09:47.679Z,17.63
2023-01-07T16:12:26.703Z,17.57
2023-01-07T16:14:53.493Z,17.57
2023-01-07T16:17:20.970Z,18.00
2023-01-07T16:19:50.173Z,16.90
2023-01-07T16:22:24.283Z,17.07
2023-01-07T16:24:53.962Z,16.83
2023-01-07T16:27:32.409Z,17.60
2023-01-07T16:29:59.411Z,18.00
2023-01-07T16:32:26.284Z,17.80
2023-01-07T16:34:57.612Z,16.77
2023-01-07T16:37:24.445Z,17.17
2023-01-07T16:39:51.506Z,18.37
2023-01-07T16:42:27.664Z,18.50
2023-01-07T16:44:54.449Z,18.80
2023-01-07T16:47:22.627Z,20.10
2023-01-07T16:49:55.686Z,19.43
2023-01-07T16:52:52.604Z,19.20
2023-01-07T16:56:30.339Z,20.27
2023-01-07T16:58:57.586Z,18.83
2023-01-07T17:01:33.642Z,19.17
2023-01-07T17:04:02.188Z,19.67
2023-01-07T17:06:30.435Z,20.13
2023-01-07T17:08:57.346Z,19.77
2023-01-07T17:11:40.440Z,19.07
2023-01-07T17:14:40.778Z,19.50
2023-01-07T17:17:15.466Z,19.60
2023-01-07T17:19:43.721Z,20.13
2023-01-07T17:22:30.233Z,19.70
2023-01-07T17:25:07.157Z,20.73
2023-01-07T17:27:33.980Z,19.90
2023-01-07T17:30:06.906Z,20.00
2023-01-07T17:32:34.533Z,20.20
2023-01-07T17:35:04.810Z,20.33
2023-01-07T17:37:37.231Z,19.93
2023-01-07T17:40:08.749Z,20.17
2023-01-07T17:42:56.543Z,19.10
2023-01-07T17:45:23.699Z,20.97
2023-01-07T17:47:50.872Z,20.90
2023-01-07T17:50:20.612Z,20.50
2023-01-07T17:52:53.179Z,20.50
2023-01-07T17:55:29.937Z,21.10
2023-01-07T17:57:58.984Z,22.23
2023-01-07T18:00:27.204Z,22.37
2023-01-07T18:02:56.919Z,22.03
2023-01-07T18:05:25.124Z,21.57
2023-01-07T18:07:54.705Z,23.63
2023-01-07T18:10:24.747Z,22.87
2023-01-07T18:12:51.562Z,23.30
2023-01-07T18:15:25.918Z,24.73
2023-01-07T18:17:52.886Z,24.13
2023-01-07T18:20:20.636Z,25.70
2023-01-07T18:22:47.547Z,24.70
2023-01-07T18:25:21.767Z,25.53
2023-01-07T18:27:52.762Z,25.80
2023-01-07T18:30:24.458Z,25.80
2023-01-07T18:32:53.926Z,26.03
2023-01-07T18:35:22.795Z,27.83
2023-01-07T18:37:50.112Z,27.33
2023-01-07T18:40:17.041Z,26.87
2023-01-07T18:42:43.833Z,28.40
2023-01-07T18:45:13.042Z,30.40
2023-01-07T18:47:39.842Z,28.60
2023-01-07T18:50:07.039Z,32.43
2023-01-07T18:52:33.945Z,33.80
2023-01-07T18:55:00.806Z,33.33
2023-01-07T18:57:27.569Z,34.10
2023-01-07T18:59:54.337Z,34.33
2023-01-07T19:02:21.503Z,34.57
2023-01-07T19:04:50.892Z,35.43
2023-01-07T19:07:18.163Z,35.83
2023-01-07T19:09:45.269Z,35.53
2023-01-07T19:12:12.290Z,35.70
2023-01-07T19:14:39.619Z,35.50
2023-01-07T19:17:07.613Z,37.27
2023-01-07T19:19:47.435Z,38.67
2023-01-07T19:22:16.090Z,39.03
2023-01-07T19:24:43.584Z,37.47
2023-01-07T19:27:10.717Z,35.73
2023-01-07T19:29:37.572Z,36.17
2023-01-07T19:32:04.572Z,37.00
2023-01-07T19:34:31.471Z,35.70
2023-01-07T19:36:58.345Z,35.50
2023-01-07T19:39:25.159Z,36.23
2023-01-07T19:41:53.051Z,36.13
2023-01-07T19:44:22.195Z,35.57
2023-01-07T19:46:49.165Z,37.30
2023-01-07T19:49:16.001Z,36.03
2023-01-07T19:51:42.974Z,35.50
2023-01-07T19:54:16.585Z,34.47
2023-01-07T19:56:45.896Z,36.00
2023-01-07T19:59:12.736Z,35.37
2023-01-07T20:01:39.709Z,34.63
2023-01-07T20:04:09.609Z,35.70
2023-01-07T20:07:05.905Z,34.50
2023-01-07T20:09:37.430Z,34.63
2023-01-07T20:12:04.519Z,34.00
2023-01-07T20:14:33.899Z,34.50
2023-01-07T20:17:02.947Z,35.27
2023-01-07T20:19:30.355Z,34.00
2023-01-07T20:21:57.344Z,34.33
2023-01-07T20:24:24.132Z,34.50
2023-01-07T20:26:52.188Z,34.67
2023-01-07T20:29:22.069Z,31.93
2023-01-07T20:31:48.973Z,33.43
2023-01-07T20:34:18.432Z,32.67
2023-01-07T20:36:45.624Z,32.40
2023-01-07T20:39:14.951Z,33.03
2023-01-07T20:41:43.136Z,31.73
2023-01-07T20:44:13.049Z,32.40
2023-01-07T20:46:40.817Z,30.87
2023-01-07T20:49:17.574Z,32.20
2023-01-07T20:51:47.400Z,31.17
2023-01-07T20:54:16.447Z,31.50
2023-01-07T20:56:45.344Z,31.43
2023-01-07T20:59:15.955Z,31.27
2023-01-07T21:01:42.875Z,31.77
2023-01-07T21:04:09.785Z,30.07
2023-01-07T21:06:36.561Z,31.73
2023-01-07T21:09:03.425Z,31.00
2023-01-07T21:11:32.322Z,31.20
2023-01-07T21:13:59.086Z,30.67
2023-01-07T21:16:26.781Z,31.47
2023-01-07T21:18:53.601Z,30.43
2023-01-07T21:21:21.318Z,30.87
2023-01-07T21:23:48.771Z,31.23
2023-01-07T21:26:15.789Z,32.00
2023-01-07T21:28:45.080Z,30.80
2023-01-07T21:31:16.073Z,31.60
2023-01-07T21:33:45.007Z,31.67
2023-01-07T21:36:16.203Z,32.83
2023-01-07T21:38:43.272Z,31.70
2023-01-07T21:41:16.159Z,32.17
2023-01-07T21:43:43.363Z,31.70
2023-01-07T21:46:10.262Z,31.00
2023-01-07T21:48:38.565Z,32.43
2023-01-07T21:51:07.174Z,33.77
2023-01-07T21:53:43.796Z,34.27
2023-01-07T21:56:14.492Z,31.47
2023-01-07T21:58:41.585Z,34.43
2023-01-07T22:01:08.690Z,34.63
2023-01-07T22:03:46.286Z,34.43
2023-01-07T22:06:20.177Z,34.17
2023-01-07T22:08:47.391Z,34.43
2023-01-07T22:11:14.986Z,34.87
2023-01-07T22:13:41.818Z,36.13
2023-01-07T22:16:09.211Z,35.97
2023-01-07T22:18:36.424Z,35.30
2023-01-07T22:21:12.072Z,35.00
2023-01-07T22:23:38.949Z,36.77
2023-01-07T22:26:06.412Z,35.17
2023-01-07T22:28:34.337Z,34.23
2023-01-07T22:31:03.053Z,34.37
2023-01-07T22:33:29.909Z,34.73
2023-01-07T22:35:56.663Z,34.00
2023-01-07T22:38:27.054Z,35.47
2023-01-07T22:40:55.104Z,34.73
2023-01-07T22:43:24.065Z,33.90
2023-01-07T22:46:00.381Z,34.80
2023-01-07T22:48:28.030Z,36.10
2023-01-07T22:50:56.605Z,35.73
2023-01-07T22:53:23.358Z,34.03
2023-01-07T22:55:50.103Z,34.73
2023-01-07T22:58:19.411Z,36.40
2023-01-07T23:00:53.224Z,36.10
2023-01-07T23:03:23.446Z,35.30
2023-01-07T23:05:52.929Z,36.37
2023-01-07T23:08:24.341Z,35.90
2023-01-07T23:10:53.593Z,35.90
2023-01-07T23:13:20.411Z,34.70
2023-01-07T23:15:47.270Z,35.00
2023-01-07T23:18:14.083Z,36.90
2023-01-07T23:20:43.866Z,35.87
2023-01-07T23:23:11.235Z,36.77
2023-01-07T23:25:47.471Z,36.17
2023-01-07T23:28:14.667Z,35.80
2023-01-07T23:30:44.069Z,36.37
2023-01-07T23:33:11.160Z,35.60
2023-01-07T23:35:37.960Z,36.70
2023-01-07T23:38:04.800Z,37.57
2023-01-07T23:40:33.701Z,35.70
2023-01-07T23:43:00.471Z,36.63
2023-01-07T23:45:29.782Z,35.63
2023-01-07T23:47:56.586Z,35.87
2023-01-07T23:50:23.422Z,36.30
2023-01-07T23:52:52.702Z,35.57
2023-01-07T23:55:19.536Z,36.80
2023-01-07T23:57:46.350Z,36.30
